Time;durP1;ratioP1;P1;durP2;ratioP2;P2;SDS_P1;SDS_P2;PMS_P1;PMS_P2;Temp;Humidity;BMP_temperature;BMP_pressure;BME280_temperature;BME280_humidity;BME280_pressure;Samples;Min_cycle;Max_cycle;Signal;HPM_P1;HPM_P2
2023/08/01 04:31:20;;;;;;;20.38;4.40;;;16.90;89.40;;;;;;5421946;23;20061;-77
2023/08/01 04:33:45;;;;;;;14.27;4.88;;;16.80;89.00;;;;;;4890827;29;20120;-77
2023/08/01 04:36:11;;;;;;;16.00;4.65;;;16.70;88.50;;;;;;4876723;29;20084;-77
2023/08/01 04:38:36;;;;;;;12.13;4.57;;;16.70;89.20;;;;;;4901914;29;20100;-78
2023/08/01 04:41:02;;;;;;;19.70;4.78;;;16.70;88.90;;;;;;4884918;29;20039;-77
2023/08/01 04:43:28;;;;;;;17.88;4.82;;;16.60;89.30;;;;;;4901809;29;20060;-77
2023/08/01 04:45:54;;;;;;;17.13;5.38;;;16.50;88.40;;;;;;4901390;29;20396;-77
2023/08/01 04:48:19;;;;;;;25.17;5.72;;;16.50;88.90;;;;;;4901960;29;20031;-77
2023/08/01 04:50:45;;;;;;;18.45;5.10;;;16.50;89.60;;;;;;4901771;29;20068;-77
2023/08/01 04:53:11;;;;;;;18.58;4.60;;;16.60;89.20;;;;;;4901683;29;20510;-77
2023/08/01 04:55:37;;;;;;;16.90;4.72;;;16.60;89.60;;;;;;4901715;29;20104;-77
2023/08/01 04:58:02;;;;;;;16.90;4.78;;;16.60;88.90;;;;;;4901859;29;20092;-77
2023/08/01 05:00:28;;;;;;;15.23;4.40;;;16.50;89.30;;;;;;4901368;29;20069;-77
2023/08/01 05:02:53;;;;;;;15.43;4.55;;;16.50;88.90;;;;;;4885148;29;20048;-77
2023/08/01 05:05:19;;;;;;;17.52;4.93;;;16.50;88.60;;;;;;4901774;29;20054;-77
2023/08/01 05:07:44;;;;;;;15.95;5.40;;;16.60;89.40;;;;;;4901890;29;20056;-77
2023/08/01 05:10:10;;;;;;;18.65;5.07;;;16.60;89.50;;;;;;4902084;29;20036;-77
2023/08/01 05:12:36;;;;;;;17.73;4.85;;;16.70;89.50;;;;;;4901991;29;20032;-77
2023/08/01 05:15:02;;;;;;;14.60;4.85;;;16.70;89.30;;;;;;4901862;29;20520;-77
2023/08/01 05:17:28;;;;;;;19.38;5.10;;;16.70;89.70;;;;;;4884950;29;20507;-76
2023/08/01 05:19:55;;;;;;;14.18;4.63;;;16.70;89.10;;;;;;4901799;29;20071;-77
2023/08/01 05:22:20;;;;;;;14.30;5.25;;;16.60;88.70;;;;;;4885016;29;20029;-77
2023/08/01 05:24:46;;;;;;;15.15;4.90;;;16.60;88.70;;;;;;4901800;29;20088;-77
2023/08/01 05:27:12;;;;;;;14.30;5.10;;;16.50;88.40;;;;;;4901841;29;20025;-77
2023/08/01 05:29:37;;;;;;;23.90;5.80;;;16.60;89.10;;;;;;4886076;29;20032;-76
2023/08/01 05:32:03;;;;;;;16.50;5.10;;;16.70;88.60;;;;;;4905021;29;20056;-77
2023/08/01 05:34:29;;;;;;;17.30;4.97;;;16.50;88.20;;;;;;4888183;29;20029;-76
2023/08/01 05:36:55;;;;;;;14.13;4.82;;;16.70;89.00;;;;;;4905015;29;20032;-77
2023/08/01 05:39:20;;;;;;;18.70;5.43;;;16.70;88.40;;;;;;4905190;29;20024;-77
2023/08/01 05:41:46;;;;;;;18.80;5.05;;;16.80;88.50;;;;;;4905123;29;20052;-77
2023/08/01 05:44:11;;;;;;;14.55;5.32;;;16.80;88.50;;;;;;4905015;29;20036;-77
2023/08/01 05:46:37;;;;;;;14.68;5.55;;;16.80;88.50;;;;;;4904965;29;20787;-77
2023/08/01 05:49:03;;;;;;;13.15;5.30;;;16.80;88.40;;;;;;4905055;29;20028;-76
2023/08/01 05:51:28;;;;;;;19.10;6.22;;;16.80;88.40;;;;;;4904725;29;20059;-77
2023/08/01 05:53:54;;;;;;;18.58;5.50;;;16.90;88.40;;;;;;4904669;29;20103;-77
2023/08/01 05:56:20;;;;;;;24.45;5.50;;;16.90;87.80;;;;;;4904812;29;20021;-77
2023/08/01 05:58:45;;;;;;;18.10;5.50;;;17.00;87.70;;;;;;4904857;29;20032;-77
2023/08/01 06:01:11;;;;;;;17.13;5.03;;;17.00;87.90;;;;;;4903931;29;20027;-77
2023/08/01 06:03:37;;;;;;;18.33;5.00;;;17.10;88.20;;;;;;4887603;29;20037;-77
2023/08/01 06:06:04;;;;;;;17.98;5.63;;;17.10;88.50;;;;;;4887430;29;20127;-77
2023/08/01 06:08:30;;;;;;;18.38;5.57;;;17.10;87.80;;;;;;4904586;29;20028;-77
2023/08/01 06:10:55;;;;;;;16.73;5.03;;;17.10;87.80;;;;;;4887603;29;20040;-77
2023/08/01 06:13:21;;;;;;;19.00;5.40;;;17.20;88.10;;;;;;4904451;29;20088;-77
2023/08/01 06:15:47;;;;;;;18.80;5.80;;;17.30;87.70;;;;;;4904449;29;20033;-77
2023/08/01 06:18:12;;;;;;;26.30;6.47;;;17.30;88.00;;;;;;4887698;29;20037;-77
2023/08/01 06:20:38;;;;;;;22.42;6.20;;;17.30;87.30;;;;;;4901340;29;20088;-77
2023/08/01 06:23:04;;;;;;;17.80;5.25;;;17.50;87.80;;;;;;4904157;29;20025;-77
2023/08/01 06:25:29;;;;;;;20.25;6.05;;;17.50;87.20;;;;;;4904287;29;20032;-77
2023/08/01 06:27:55;;;;;;;24.73;5.90;;;17.50;86.90;;;;;;4904276;29;20484;-77
2023/08/01 06:30:20;;;;;;;15.93;5.70;;;17.60;87.50;;;;;;4904080;29;20083;-77
2023/08/01 06:32:46;;;;;;;25.02;6.60;;;17.60;87.30;;;;;;4902760;29;20040;-77
2023/08/01 06:35:12;;;;;;;21.77;6.20;;;17.70;87.70;;;;;;4902291;29;20028;-77
2023/08/01 06:37:37;;;;;;;25.77;6.97;;;17.70;86.60;;;;;;4904141;29;20031;-77
2023/08/01 06:40:04;;;;;;;17.73;5.30;;;17.80;87.10;;;;;;4904182;29;20028;-77
2023/08/01 06:42:30;;;;;;;24.88;5.80;;;17.80;85.90;;;;;;4903331;29;20048;-77
2023/08/01 06:44:55;;;;;;;21.42;6.32;;;17.80;87.00;;;;;;4886791;29;20040;-77
2023/08/01 06:47:21;;;;;;;27.13;5.63;;;17.80;86.70;;;;;;4904382;29;20029;-77
2023/08/01 06:49:46;;;;;;;23.08;6.43;;;17.80;86.60;;;;;;4903293;29;20095;-77
2023/08/01 06:52:12;;;;;;;23.77;6.13;;;17.80;86.60;;;;;;4903771;29;20037;-77
2023/08/01 06:54:38;;;;;;;16.20;5.72;;;17.90;85.50;;;;;;4903679;29;20028;-77
2023/08/01 06:57:05;;;;;;;19.55;5.55;;;17.90;85.80;;;;;;4904036;29;20044;-77
2023/08/01 06:59:31;;;;;;;21.92;6.43;;;18.00;85.60;;;;;;4903720;29;20052;-77
2023/08/01 07:01:57;;;;;;;19.17;6.13;;;18.10;86.10;;;;;;4903544;29;20040;-77
2023/08/01 07:04:23;;;;;;;19.85;5.90;;;18.30;86.20;;;;;;4903597;29;20024;-77
2023/08/01 07:06:49;;;;;;;19.88;5.47;;;18.30;84.50;;;;;;4903381;29;20024;-77
2023/08/01 07:09:15;;;;;;;23.75;6.13;;;18.20;84.70;;;;;;4903610;29;20080;-77
2023/08/01 07:11:40;;;;;;;23.20;6.38;;;18.30;85.20;;;;;;4903122;29;20032;-77
2023/08/01 07:14:06;;;;;;;16.52;6.15;;;18.40;85.50;;;;;;4903427;29;20040;-77
2023/08/01 07:16:32;;;;;;;14.40;5.72;;;18.40;83.90;;;;;;4903397;29;20031;-77
2023/08/01 07:19:01;;;;;;;26.35;6.60;;;18.50;83.30;;;;;;4903287;29;20085;-77
2023/08/01 07:21:27;;;;;;;16.85;5.50;;;18.70;84.20;;;;;;4886158;29;20464;-77
2023/08/01 07:23:52;;;;;;;21.60;6.35;;;18.80;83.10;;;;;;4903481;29;20507;-77
2023/08/01 07:26:18;;;;;;;19.02;5.95;;;19.10;83.80;;;;;;4903484;29;20111;-77
2023/08/01 07:28:43;;;;;;;19.60;6.13;;;19.60;83.00;;;;;;4903284;29;20505;-77
2023/08/01 07:31:09;;;;;;;16.67;5.78;;;20.00;79.60;;;;;;4885907;29;20108;-76
2023/08/01 07:33:35;;;;;;;23.67;5.70;;;20.20;79.40;;;;;;4903102;29;20036;-77
2023/08/01 07:36:01;;;;;;;14.00;5.35;;;20.50;78.00;;;;;;4886086;29;20036;-77
2023/08/01 07:38:27;;;;;;;18.20;5.40;;;20.50;78.40;;;;;;4901602;29;20124;-77
2023/08/01 07:40:53;;;;;;;19.95;5.47;;;20.60;77.90;;;;;;4902926;29;20511;-77
2023/08/01 07:43:19;;;;;;;15.30;5.20;;;21.70;76.10;;;;;;4902906;29;20055;-77
2023/08/01 07:45:45;;;;;;;18.17;5.25;;;22.30;71.80;;;;;;4903046;29;20036;-77
2023/08/01 07:48:11;;;;;;;16.08;5.15;;;22.80;71.90;;;;;;4885896;29;20060;-77
2023/08/01 07:50:36;;;;;;;20.02;5.93;;;23.00;72.40;;;;;;4902273;29;20110;-77
2023/08/01 07:53:02;;;;;;;13.43;5.07;;;23.80;70.40;;;;;;4901859;29;20077;-77
2023/08/01 07:55:27;;;;;;;14.82;5.47;;;24.00;65.50;;;;;;4902763;29;20494;-77
2023/08/01 07:57:53;;;;;;;16.42;5.40;;;23.70;64.50;;;;;;4902580;29;20024;-77
2023/08/01 08:00:19;;;;;;;18.70;5.88;;;23.30;68.30;;;;;;4902501;29;20033;-77
2023/08/01 08:02:45;;;;;;;17.58;4.80;;;22.50;69.20;;;;;;4902699;29;20034;-77
2023/08/01 08:05:11;;;;;;;19.77;6.43;;;22.30;70.40;;;;;;4902562;29;20036;-77
2023/08/01 08:07:37;;;;;;;17.63;5.90;;;23.00;70.80;;;;;;4902316;29;20081;-77
2023/08/01 08:10:06;;;;;;;16.63;5.75;;;23.20;66.40;;;;;;4902577;29;20153;-77
2023/08/01 08:12:32;;;;;;;18.63;5.07;;;23.90;68.60;;;;;;4902409;29;20517;-77
2023/08/01 08:14:58;;;;;;;17.27;5.90;;;24.30;67.50;;;;;;4902588;29;20555;-77
2023/08/01 08:17:24;;;;;;;14.13;5.10;;;24.10;64.90;;;;;;4902557;29;20056;-77
2023/08/01 08:19:49;;;;;;;17.65;5.00;;;23.70;65.50;;;;;;4902614;29;20051;-77
2023/08/01 08:22:15;;;;;;;14.18;5.43;;;23.30;68.00;;;;;;4901103;29;20143;-78
2023/08/01 08:24:41;;;;;;;12.40;4.45;;;23.80;66.50;;;;;;4902562;29;20090;-78
2023/08/01 08:27:06;;;;;;;18.52;5.68;;;23.80;63.90;;;;;;4902225;29;20033;-77
2023/08/01 08:29:32;;;;;;;15.52;5.07;;;23.60;67.50;;;;;;4902469;29;20021;-77
2023/08/01 08:31:58;;;;;;;16.63;7.20;;;23.40;66.70;;;;;;4902145;29;20044;-77
2023/08/01 08:34:24;;;;;;;15.93;6.05;;;23.10;68.30;;;;;;4902394;29;20039;-77
2023/08/01 08:36:50;;;;;;;16.48;4.82;;;23.20;67.80;;;;;;4887685;29;20025;-77
2023/08/01 08:39:16;;;;;;;17.50;5.75;;;23.10;66.50;;;;;;4885562;29;20032;-77
2023/08/01 08:41:50;;;;;;;14.77;5.20;;;22.60;67.70;;;;;;4902254;29;20068;-77
2023/08/01 08:44:17;;;;;;;14.27;4.75;;;22.40;69.00;;;;;;4885305;29;20067;-77
2023/08/01 08:46:44;;;;;;;13.25;5.18;;;22.10;70.20;;;;;;4902268;29;20028;-77
2023/08/01 08:49:10;;;;;;;14.00;5.10;;;21.80;71.60;;;;;;4901780;29;20059;-77
2023/08/01 08:51:41;;;;;;;16.15;5.30;;;21.60;71.40;;;;;;4902114;29;20029;-77
2023/08/01 08:54:08;;;;;;;17.05;5.80;;;21.40;71.10;;;;;;4902055;29;20029;-77
2023/08/01 08:56:35;;;;;;;14.18;5.57;;;21.40;71.70;;;;;;4902028;29;20036;-77
2023/08/01 08:59:00;;;;;;;17.30;5.53;;;21.80;70.30;;;;;;4885296;29;20060;-78
2023/08/01 09:01:26;;;;;;;17.88;5.38;;;22.00;69.20;;;;;;4901908;29;20033;-77
2023/08/01 09:03:56;;;;;;;13.00;4.82;;;22.10;70.00;;;;;;4885067;29;20473;-78
2023/08/01 09:06:28;;;;;;;14.02;4.95;;;22.10;69.20;;;;;;4905205;29;20539;-77
2023/08/01 09:09:04;;;;;;;9.90;4.70;;;21.90;70.80;;;;;;4905641;29;20040;-77
2023/08/01 09:11:48;;;;;;;15.35;4.90;;;21.80;70.80;;;;;;4905735;29;20029;-77
2023/08/01 09:14:14;;;;;;;14.52;5.18;;;21.60;69.60;;;;;;4888298;29;20132;-77
2023/08/01 09:16:41;;;;;;;13.63;4.50;;;21.40;70.90;;;;;;4905605;29;20056;-77
2023/08/01 09:19:07;;;;;;;12.65;5.25;;;21.30;72.40;;;;;;4905540;29;20104;-77
2023/08/01 09:21:34;;;;;;;18.85;4.53;;;21.30;71.10;;;;;;4905305;29;20112;-77
2023/08/01 09:24:16;;;;;;;12.02;4.22;;;21.00;71.30;;;;;;4905207;29;20033;-77
2023/08/01 09:26:42;;;;;;;11.90;4.53;;;20.80;71.80;;;;;;4905476;29;20033;-77
2023/08/01 09:29:08;;;;;;;12.05;4.68;;;20.60;72.90;;;;;;4905398;29;20265;-77
2023/08/01 09:31:43;;;;;;;13.85;4.00;;;20.30;72.30;;;;;;4888349;29;20059;-77
2023/08/01 09:34:20;;;;;;;12.43;4.32;;;20.20;73.80;;;;;;4904960;29;20039;-77
2023/08/01 09:36:46;;;;;;;13.18;4.63;;;20.20;74.30;;;;;;4888038;29;20448;-77
2023/08/01 09:39:16;;;;;;;16.15;4.78;;;20.10;74.60;;;;;;4905330;29;20029;-77
2023/08/01 09:41:42;;;;;;;14.35;4.80;;;20.20;73.70;;;;;;4905167;29;20052;-77
2023/08/01 09:44:12;;;;;;;17.42;5.32;;;20.30;74.50;;;;;;4904796;29;20032;-77
2023/08/01 09:46:37;;;;;;;12.60;4.28;;;20.40;74.20;;;;;;4905214;29;20462;-77
2023/08/01 09:49:10;;;;;;;14.93;5.40;;;20.30;74.70;;;;;;4904310;29;20060;-77
2023/08/01 09:51:50;;;;;;;14.68;4.43;;;20.30;75.20;;;;;;4904873;29;20043;-77
2023/08/01 09:54:17;;;;;;;11.90;4.72;;;20.10;74.70;;;;;;4904699;29;20509;-77
2023/08/01 09:56:45;;;;;;;16.55;4.65;;;20.10;75.50;;;;;;4904898;29;20029;-77
2023/08/01 09:59:12;;;;;;;14.30;4.88;;;20.20;75.60;;;;;;4887871;29;20025;-77
2023/08/01 10:01:40;;;;;;;15.15;5.10;;;20.80;75.10;;;;;;4904585;29;20033;-77
2023/08/01 10:04:08;;;;;;;18.05;4.50;;;21.40;74.20;;;;;;4904639;29;20099;-78
2023/08/01 10:06:37;;;;;;;13.50;4.65;;;21.70;72.70;;;;;;4904232;29;20120;-77
2023/08/01 10:09:04;;;;;;;20.63;5.13;;;21.90;71.60;;;;;;4904729;29;20112;-77
2023/08/01 10:11:33;;;;;;;14.15;4.78;;;22.00;70.40;;;;;;4904575;29;20487;-78
2023/08/01 10:14:02;;;;;;;15.07;4.53;;;22.30;69.90;;;;;;4904339;29;20028;-78
2023/08/01 10:16:29;;;;;;;19.02;5.05;;;22.30;69.60;;;;;;4903406;29;20027;-78
2023/08/01 10:18:55;;;;;;;12.30;4.97;;;22.30;68.20;;;;;;4904416;29;20021;-78
2023/08/01 10:21:21;;;;;;;14.45;4.85;;;22.30;68.50;;;;;;4904201;29;20032;-77
2023/08/01 10:23:48;;;;;;;12.98;4.63;;;22.10;68.20;;;;;;4887462;29;20107;-78
2023/08/01 10:26:14;;;;;;;11.50;4.38;;;22.10;67.50;;;;;;4904321;29;20032;-78
2023/08/01 10:28:48;;;;;;;12.48;4.50;;;22.40;68.80;;;;;;4887528;29;20029;-78
2023/08/01 10:31:16;;;;;;;13.48;4.85;;;22.70;65.80;;;;;;4903830;29;20053;-78
2023/08/01 10:33:47;;;;;;;12.88;4.53;;;23.00;67.40;;;;;;4904087;29;20036;-78
2023/08/01 10:36:14;;;;;;;11.15;4.07;;;23.10;65.90;;;;;;4904163;29;20067;-78
2023/08/01 10:38:55;;;;;;;15.13;4.45;;;23.10;65.10;;;;;;4904178;29;20099;-78
2023/08/01 10:41:32;;;;;;;14.65;4.47;;;23.10;64.50;;;;;;4903960;29;20036;-78
2023/08/01 10:44:12;;;;;;;16.33;4.90;;;23.20;65.20;;;;;;4881077;29;20076;-77
2023/08/01 10:46:57;;;;;;;12.20;4.20;;;23.40;65.80;;;;;;4903613;29;20028;-77
2023/08/01 10:49:42;;;;;;;14.73;4.57;;;23.70;65.90;;;;;;4886926;29;20017;-78
2023/08/01 10:52:19;;;;;;;13.00;4.37;;;23.40;64.50;;;;;;4903638;29;20495;-78
2023/08/01 10:54:46;;;;;;;11.70;4.90;;;23.00;64.00;;;;;;4903836;29;20429;-77
2023/08/01 10:57:18;;;;;;;13.88;4.82;;;22.80;65.40;;;;;;4903754;29;20029;-77
2023/08/01 10:59:44;;;;;;;11.70;4.50;;;22.80;66.90;;;;;;4903595;29;20021;-78
2023/08/01 11:02:10;;;;;;;18.40;5.55;;;22.60;66.80;;;;;;4903713;29;20064;-77
2023/08/01 11:04:36;;;;;;;12.25;4.63;;;22.60;66.90;;;;;;4886318;29;20032;-78
2023/08/01 11:07:04;;;;;;;13.25;5.35;;;22.70;65.60;;;;;;4903265;29;20036;-78
2023/08/01 11:09:29;;;;;;;12.13;4.43;;;22.70;65.50;;;;;;4903206;29;20024;-77
2023/08/01 11:11:57;;;;;;;12.57;5.57;;;22.50;66.10;;;;;;4903577;29;20036;-77
2023/08/01 11:14:27;;;;;;;20.40;4.82;;;22.30;67.00;;;;;;4886478;29;20035;-78
2023/08/01 11:16:57;;;;;;;11.25;4.18;;;22.20;68.50;;;;;;4903400;29;20037;-77
2023/08/01 11:19:27;;;;;;;9.30;4.05;;;22.00;68.50;;;;;;4903230;29;20056;-78
2023/08/01 11:21:57;;;;;;;15.07;4.70;;;22.00;68.40;;;;;;4903181;29;20111;-77
2023/08/01 11:24:24;;;;;;;11.85;4.45;;;21.90;69.20;;;;;;4886437;29;20060;-78
2023/08/01 11:26:51;;;;;;;14.95;4.30;;;21.90;67.90;;;;;;4903034;29;20032;-77
2023/08/01 11:29:18;;;;;;;11.45;4.63;;;22.00;68.50;;;;;;4903238;29;20071;-77
2023/08/01 11:31:59;;;;;;;12.55;4.60;;;22.20;69.00;;;;;;4903161;29;20143;-77
2023/08/01 11:34:26;;;;;;;14.73;5.10;;;22.10;67.90;;;;;;4903144;29;20025;-78
2023/08/01 11:36:52;;;;;;;13.00;4.50;;;22.10;67.60;;;;;;4902759;29;20025;-78
2023/08/01 11:39:18;;;;;;;12.13;4.53;;;22.10;68.10;;;;;;4886214;29;20029;-78
2023/08/01 11:41:44;;;;;;;11.60;3.60;;;22.30;68.10;;;;;;4902598;29;20039;-78
2023/08/01 11:44:11;;;;;;;12.52;4.47;;;22.10;67.30;;;;;;4903023;29;20554;-78
2023/08/01 11:46:38;;;;;;;12.18;3.95;;;22.00;67.50;;;;;;4885800;29;20510;-78
2023/08/01 11:49:07;;;;;;;15.68;4.78;;;22.00;68.50;;;;;;4886012;29;20123;-78
2023/08/01 11:51:44;;;;;;;16.17;5.63;;;22.10;68.00;;;;;;4885985;29;20368;-78
2023/08/01 11:54:11;;;;;;;14.30;4.72;;;22.20;68.00;;;;;;4902686;29;20056;-78
2023/08/01 11:56:38;;;;;;;9.60;4.38;;;22.10;68.10;;;;;;4902644;29;20056;-78
2023/08/01 11:59:17;;;;;;;8.93;4.43;;;22.10;67.80;;;;;;4902568;29;20036;-77
2023/08/01 12:01:45;;;;;;;14.35;4.47;;;22.30;67.30;;;;;;4902543;29;20028;-78
2023/08/01 12:04:11;;;;;;;13.43;4.13;;;22.30;67.90;;;;;;4902733;29;20103;-78
2023/08/01 12:06:38;;;;;;;11.27;3.95;;;22.50;67.00;;;;;;4885151;29;20075;-77
2023/08/01 12:09:10;;;;;;;14.50;4.30;;;22.50;67.10;;;;;;4902471;29;20119;-78
2023/08/01 12:11:36;;;;;;;12.80;5.05;;;22.40;66.90;;;;;;4902613;29;20483;-78
2023/08/01 12:14:03;;;;;;;12.27;4.50;;;22.50;67.80;;;;;;4901079;29;20183;-78
2023/08/01 12:16:30;;;;;;;10.77;3.83;;;22.50;68.20;;;;;;4901306;29;20032;-78
2023/08/01 12:18:56;;;;;;;8.75;3.22;;;22.60;67.60;;;;;;4902674;29;20513;-78
2023/08/01 12:21:22;;;;;;;9.63;3.63;;;22.40;67.30;;;;;;4902617;29;20020;-78
2023/08/01 12:23:47;;;;;;;12.05;3.88;;;22.30;67.60;;;;;;4902655;29;20081;-78
2023/08/01 12:26:13;;;;;;;11.38;3.58;;;22.30;68.10;;;;;;4901094;29;20060;-78
2023/08/01 12:28:39;;;;;;;11.57;3.92;;;22.20;68.60;;;;;;4902558;29;20052;-78
2023/08/01 12:31:05;;;;;;;10.48;3.47;;;22.10;69.30;;;;;;4900965;29;20076;-78
2023/08/01 12:33:32;;;;;;;12.50;4.75;;;22.20;69.80;;;;;;4902396;29;20112;-78
2023/08/01 12:35:58;;;;;;;10.70;3.75;;;22.10;69.70;;;;;;4902194;29;20468;-78
2023/08/01 12:38:24;;;;;;;10.23;3.70;;;22.00;70.20;;;;;;4902360;29;20024;-78
2023/08/01 12:40:49;;;;;;;11.70;3.90;;;21.80;70.40;;;;;;4905492;29;20031;-77
2023/08/01 12:43:16;;;;;;;9.18;3.90;;;21.70;70.60;;;;;;4906128;29;20020;-78
2023/08/01 12:45:42;;;;;;;13.38;3.80;;;21.80;70.60;;;;;;4889229;29;20037;-78
2023/08/01 12:48:07;;;;;;;11.35;3.72;;;21.80;70.70;;;;;;4906232;29;20021;-78
2023/08/01 12:50:33;;;;;;;8.60;3.58;;;21.70;71.70;;;;;;4906069;29;20037;-78
2023/08/01 12:52:59;;;;;;;12.52;3.60;;;21.70;71.70;;;;;;4905651;29;20031;-78
2023/08/01 12:55:24;;;;;;;10.48;3.95;;;21.80;71.80;;;;;;4905670;29;20032;-78
2023/08/01 12:57:50;;;;;;;10.05;4.00;;;21.80;72.00;;;;;;4905795;29;20075;-78
2023/08/01 13:00:16;;;;;;;9.43;3.80;;;21.70;72.30;;;;;;4905837;29;20028;-78
2023/08/01 13:02:42;;;;;;;9.27;3.35;;;21.80;72.60;;;;;;4904177;29;20033;-78
2023/08/01 13:05:07;;;;;;;12.20;3.55;;;21.80;72.70;;;;;;4905626;29;20029;-78
2023/08/01 13:07:34;;;;;;;10.40;4.07;;;21.80;73.00;;;;;;4888615;29;20428;-77
2023/08/01 13:10:00;;;;;;;10.43;3.72;;;21.80;72.60;;;;;;4888983;29;20120;-78
2023/08/01 13:12:25;;;;;;;13.48;4.15;;;21.70;72.30;;;;;;4888574;29;20037;-78
2023/08/01 13:14:51;;;;;;;10.35;3.45;;;21.70;72.60;;;;;;4905661;29;20429;-77
2023/08/01 13:17:17;;;;;;;12.80;3.97;;;21.70;73.20;;;;;;4888516;29;20085;-77
2023/08/01 13:19:42;;;;;;;10.65;3.40;;;21.70;73.40;;;;;;4888777;29;20020;-78
2023/08/01 13:22:08;;;;;;;13.63;4.07;;;21.50;73.30;;;;;;4905222;29;20156;-78
2023/08/01 13:24:33;;;;;;;10.27;4.95;;;21.30;73.70;;;;;;4905480;29;20383;-78
2023/08/01 13:26:59;;;;;;;16.15;4.15;;;21.30;74.20;;;;;;4905483;29;20080;-78
2023/08/01 13:29:25;;;;;;;9.32;3.20;;;21.30;74.70;;;;;;4905305;29;20483;-78
2023/08/01 13:31:50;;;;;;;7.85;2.97;;;21.40;75.00;;;;;;4905086;29;20048;-78
2023/08/01 13:34:17;;;;;;;11.55;3.80;;;21.30;74.40;;;;;;4888584;29;20037;-78
2023/08/01 13:36:43;;;;;;;10.48;4.05;;;21.30;74.40;;;;;;4905129;29;20436;-78
2023/08/01 13:39:09;;;;;;;9.57;3.70;;;21.10;73.90;;;;;;4904258;29;20028;-78
2023/08/01 13:41:35;;;;;;;9.20;3.15;;;21.20;74.30;;;;;;4888157;29;20025;-78
2023/08/01 13:44:00;;;;;;;12.15;3.83;;;21.20;73.70;;;;;;4905288;29;20043;-79
2023/08/01 13:46:26;;;;;;;13.75;4.30;;;21.30;74.10;;;;;;4905237;29;20032;-78
2023/08/01 13:48:52;;;;;;;9.15;3.28;;;21.30;73.90;;;;;;4904858;29;20036;-78
2023/08/01 13:51:17;;;;;;;16.63;4.30;;;21.20;74.10;;;;;;4905236;29;20064;-78
2023/08/01 13:53:43;;;;;;;13.55;4.60;;;21.10;74.40;;;;;;4904952;29;20036;-77
2023/08/01 13:56:10;;;;;;;14.82;4.47;;;21.10;74.30;;;;;;4905152;29;20025;-78
2023/08/01 13:58:37;;;;;;;15.65;4.15;;;21.20;74.40;;;;;;4904783;29;20035;-78
2023/08/01 14:01:07;;;;;;;12.32;4.10;;;21.50;74.40;;;;;;4904646;29;20052;-78
2023/08/01 14:03:33;;;;;;;11.38;4.22;;;21.60;73.70;;;;;;4905047;29;20041;-78
2023/08/01 14:06:11;;;;;;;12.02;4.68;;;21.50;73.50;;;;;;4887442;29;20064;-78
2023/08/01 14:08:37;;;;;;;10.35;4.47;;;21.50;73.70;;;;;;4904467;29;20076;-78
2023/08/01 14:11:04;;;;;;;14.00;4.45;;;21.50;73.90;;;;;;4904782;29;20056;-78
2023/08/01 14:13:29;;;;;;;13.10;4.65;;;21.30;73.70;;;;;;4903299;29;20068;-78
2023/08/01 14:15:55;;;;;;;11.02;3.97;;;21.30;73.90;;;;;;4904564;29;20428;-78
2023/08/01 14:18:21;;;;;;;13.13;4.28;;;21.30;74.30;;;;;;4904524;29;20025;-78
2023/08/01 14:20:46;;;;;;;12.32;4.90;;;21.30;74.20;;;;;;4904562;29;20106;-78
2023/08/01 14:23:12;;;;;;;12.02;4.60;;;21.20;73.90;;;;;;4903242;29;20052;-77
2023/08/01 14:25:38;;;;;;;17.38;5.15;;;21.00;74.50;;;;;;4902950;29;20039;-77
2023/08/01 14:28:04;;;;;;;15.38;5.28;;;20.90;74.50;;;;;;4904350;29;20373;-78
2023/08/01 14:30:29;;;;;;;16.38;4.95;;;20.80;74.70;;;;;;4904149;29;20088;-78
2023/08/01 14:33:09;;;;;;;13.70;4.60;;;20.80;75.40;;;;;;4904317;29;20054;-78
2023/08/01 14:35:35;;;;;;;15.77;4.80;;;20.60;75.60;;;;;;4904036;29;20041;-78
2023/08/01 14:38:02;;;;;;;15.65;4.78;;;20.50;75.90;;;;;;4904080;29;20025;-78
2023/08/01 14:40:29;;;;;;;19.63;5.68;;;20.60;76.40;;;;;;4904167;29;20112;-77
2023/08/01 14:42:54;;;;;;;17.15;4.93;;;20.60;76.70;;;;;;4904082;29;20029;-77
2023/08/01 14:45:20;;;;;;;17.45;4.57;;;20.40;76.90;;;;;;4903931;29;20133;-78
2023/08/01 14:47:46;;;;;;;14.07;5.10;;;20.30;77.10;;;;;;4904031;29;20028;-78
2023/08/01 14:50:13;;;;;;;12.77;5.18;;;20.20;78.00;;;;;;4904003;29;20395;-78
2023/08/01 14:52:39;;;;;;;21.23;5.72;;;20.10;78.50;;;;;;4903248;29;20025;-78
2023/08/01 14:55:05;;;;;;;22.67;5.82;;;20.20;78.90;;;;;;4886803;29;20025;-78
2023/08/01 14:57:31;;;;;;;15.65;5.03;;;20.20;79.00;;;;;;4903862;29;20107;-78
2023/08/01 14:59:57;;;;;;;14.98;5.15;;;20.10;79.20;;;;;;4903684;29;20055;-78
2023/08/01 15:02:23;;;;;;;22.55;5.88;;;20.20;79.30;;;;;;4901857;29;20032;-78
2023/08/01 15:04:56;;;;;;;16.40;5.68;;;20.30;79.30;;;;;;4903370;29;20021;-78
2023/08/01 15:07:23;;;;;;;19.67;5.93;;;20.30;79.10;;;;;;4886571;29;20085;-78
2023/08/01 15:09:50;;;;;;;17.65;6.07;;;20.30;79.60;;;;;;4903652;29;20031;-78
2023/08/01 15:12:26;;;;;;;16.02;5.03;;;20.20;79.60;;;;;;4903537;29;20389;-78
2023/08/01 15:14:52;;;;;;;20.65;5.32;;;20.30;79.60;;;;;;4903298;29;20475;-78
2023/08/01 15:17:18;;;;;;;23.15;5.70;;;20.30;79.50;;;;;;4903525;29;20024;-78
2023/08/01 15:19:46;;;;;;;16.65;5.65;;;20.10;79.50;;;;;;4903463;29;20020;-78
2023/08/01 15:22:15;;;;;;;12.57;5.05;;;20.10;79.60;;;;;;4903252;29;20060;-78
2023/08/01 15:24:41;;;;;;;15.68;5.07;;;20.10;79.80;;;;;;4903116;29;20094;-78
2023/08/01 15:27:07;;;;;;;17.00;5.10;;;20.10;79.50;;;;;;4903245;29;20033;-78
2023/08/01 15:29:32;;;;;;;20.08;5.55;;;20.10;79.20;;;;;;4903572;29;20021;-78
2023/08/01 15:31:58;;;;;;;12.68;4.38;;;20.20;78.90;;;;;;4903058;29;20048;-78
2023/08/01 15:34:24;;;;;;;13.98;4.70;;;20.10;79.00;;;;;;4886074;29;20029;-78
2023/08/01 15:36:49;;;;;;;15.77;4.15;;;20.10;79.10;;;;;;4902298;29;20035;-78
2023/08/01 15:39:15;;;;;;;17.65;4.35;;;20.10;79.30;;;;;;4903346;29;20131;-77
2023/08/01 15:41:42;;;;;;;14.50;4.10;;;20.10;79.00;;;;;;4903035;29;20025;-78
2023/08/01 15:44:08;;;;;;;10.10;4.07;;;20.10;78.90;;;;;;4902894;29;20033;-78
2023/08/01 15:46:34;;;;;;;9.98;3.55;;;20.10;79.00;;;;;;4903055;29;20039;-78
2023/08/01 15:49:00;;;;;;;13.10;4.18;;;20.10;79.40;;;;;;4886030;29;20047;-78
2023/08/01 15:51:26;;;;;;;13.43;4.05;;;20.10;79.60;;;;;;4902664;29;20247;-78
2023/08/01 15:53:52;;;;;;;12.88;4.00;;;20.00;79.50;;;;;;4885945;29;20079;-77
2023/08/01 15:56:18;;;;;;;9.27;3.45;;;20.00;79.40;;;;;;4902930;29;20032;-78
2023/08/01 15:58:44;;;;;;;10.27;3.40;;;20.00;79.50;;;;;;4902818;29;20499;-78
2023/08/01 16:01:10;;;;;;;10.60;3.78;;;20.10;79.70;;;;;;4902337;29;20157;-78
2023/08/01 16:03:38;;;;;;;13.18;3.72;;;20.10;79.90;;;;;;4902475;29;20077;-78
2023/08/01 16:06:04;;;;;;;10.90;3.50;;;20.20;79.90;;;;;;4902115;29;20064;-78
2023/08/01 16:08:30;;;;;;;10.60;3.20;;;20.20;80.20;;;;;;4902559;29;20025;-78
2023/08/01 16:10:55;;;;;;;11.63;4.07;;;20.20;80.20;;;;;;4885697;29;20067;-77
2023/08/01 16:13:21;;;;;;;10.25;3.65;;;20.10;80.10;;;;;;4902222;29;20421;-78
2023/08/01 16:15:49;;;;;;;11.98;4.03;;;20.10;80.50;;;;;;4902143;29;20710;-78
2023/08/01 16:18:15;;;;;;;9.75;4.18;;;20.00;80.00;;;;;;4885884;29;20025;-78
2023/08/01 16:20:40;;;;;;;13.10;4.18;;;19.90;80.60;;;;;;4902178;29;20084;-78
2023/08/01 16:23:06;;;;;;;11.52;4.03;;;19.90;81.00;;;;;;4885371;29;20040;-77
2023/08/01 16:25:32;;;;;;;10.50;4.15;;;19.90;81.50;;;;;;4902499;29;20043;-77
2023/08/01 16:27:58;;;;;;;16.52;4.35;;;19.80;81.80;;;;;;4902629;29;20129;-78
2023/08/01 16:30:23;;;;;;;12.20;4.00;;;19.80;81.80;;;;;;4901861;29;20133;-77
2023/08/01 16:32:50;;;;;;;12.55;3.95;;;19.80;81.90;;;;;;4885477;29;20578;-77
2023/08/01 16:35:16;;;;;;;12.65;4.28;;;19.80;82.30;;;;;;4885615;29;20032;-77
2023/08/01 16:37:42;;;;;;;10.75;3.33;;;19.80;82.30;;;;;;4901028;29;20035;-77
2023/08/01 16:40:09;;;;;;;11.68;3.92;;;19.80;82.20;;;;;;4885120;29;20028;-77
2023/08/01 16:42:35;;;;;;;13.52;4.47;;;19.80;82.50;;;;;;4902277;29;20025;-77
2023/08/01 16:45:01;;;;;;;14.95;5.50;;;19.80;82.50;;;;;;4902570;29;20507;-77
2023/08/01 16:47:26;;;;;;;15.65;4.32;;;19.80;82.30;;;;;;4902414;29;20037;-77
2023/08/01 16:49:56;;;;;;;12.45;4.63;;;19.80;82.60;;;;;;4889054;29;20111;-77
2023/08/01 16:52:22;;;;;;;13.55;4.20;;;19.70;82.60;;;;;;4900789;29;20084;-77
2023/08/01 16:54:47;;;;;;;15.55;5.95;;;19.70;83.10;;;;;;4902296;29;20024;-77
2023/08/01 16:57:13;;;;;;;17.45;5.13;;;19.60;83.00;;;;;;4902113;29;20025;-77
2023/08/01 16:59:39;;;;;;;17.17;5.65;;;19.60;83.10;;;;;;4901942;29;20076;-78
2023/08/01 17:02:08;;;;;;;15.35;5.13;;;19.50;83.30;;;;;;4902196;29;20036;-77
2023/08/01 17:04:36;;;;;;;17.05;5.97;;;19.50;83.40;;;;;;4902205;29;20021;-78
2023/08/01 17:07:02;;;;;;;14.90;5.28;;;19.50;83.90;;;;;;4901754;29;20029;-77